sensor_id;sensor_type;location;lat;lon;timestamp;pressure;altitude;pressure_sealevel;temperature;humidity
21760;BME280;11041;50.854;20.580;2022-12-07T00:01:38;98139.47;;;0.03;98.55
21760;BME280;11041;50.854;20.580;2022-12-07T00:04:10;98141.63;;;0.06;98.62
21760;BME280;11041;50.854;20.580;2022-12-07T00:06:44;98156.56;;;0.19;98.05
21760;BME280;11041;50.854;20.580;2022-12-07T00:09:16;98161.97;;;0.19;98.57
21760;BME280;11041;50.854;20.580;2022-12-07T00:11:43;98142.72;;;0.05;98.40
21760;BME280;11041;50.854;20.580;2022-12-07T00:14:14;98166.00;;;0.16;98.77
21760;BME280;11041;50.854;20.580;2022-12-07T00:16:41;98144.91;;;0.08;98.49
21760;BME280;11041;50.854;20.580;2022-12-07T00:19:10;98161.47;;;0.22;98.13
21760;BME280;11041;50.854;20.580;2022-12-07T00:21:37;98157.91;;;0.16;98.22
21760;BME280;11041;50.854;20.580;2022-12-07T00:24:06;98158.19;;;0.15;98.71
21760;BME280;11041;50.854;20.580;2022-12-07T00:26:36;98168.44;;;0.18;98.79
21760;BME280;11041;50.854;20.580;2022-12-07T00:29:19;98139.47;;;0.03;98.61
21760;BME280;11041;50.854;20.580;2022-12-07T00:31:46;98154.63;;;0.14;98.67
21760;BME280;11041;50.854;20.580;2022-12-07T00:34:19;98167.66;;;0.23;98.45
21760;BME280;11041;50.854;20.580;2022-12-07T00:36:46;98166.88;;;0.22;98.30
21760;BME280;11041;50.854;20.580;2022-12-07T00:39:14;98161.47;;;0.22;98.47
21760;BME280;11041;50.854;20.580;2022-12-07T00:41:40;98159.56;;;0.23;98.24
21760;BME280;11041;50.854;20.580;2022-12-07T00:44:07;98136.00;;;0.08;98.24
21760;BME280;11041;50.854;20.580;2022-12-07T00:46:34;98139.53;;;0.13;97.98
21760;BME280;11041;50.854;20.580;2022-12-07T00:49:00;98130.03;;;0.06;97.94
21760;BME280;11041;50.854;20.580;2022-12-07T00:51:27;98157.66;;;0.23;98.23
21760;BME280;11041;50.854;20.580;2022-12-07T00:53:54;98122.72;;;0.01;98.69
21760;BME280;11041;50.854;20.580;2022-12-07T00:56:25;98127.88;;;0.08;98.51
21760;BME280;11041;50.854;20.580;2022-12-07T00:59:00;98154.72;;;0.25;98.21
21760;BME280;11041;50.854;20.580;2022-12-07T01:01:31;98138.97;;;0.16;98.11
21760;BME280;11041;50.854;20.580;2022-12-07T01:03:59;98160.13;;;0.25;98.61
21760;BME280;11041;50.854;20.580;2022-12-07T01:06:28;98129.81;;;0.12;98.73
21760;BME280;11041;50.854;20.580;2022-12-07T01:08:56;98155.28;;;0.27;98.40
21760;BME280;11041;50.854;20.580;2022-12-07T01:11:27;98163.94;;;0.34;98.31
21760;BME280;11041;50.854;20.580;2022-12-07T01:13:57;98155.00;;;0.33;98.18
21760;BME280;11041;50.854;20.580;2022-12-07T01:16:26;98157.22;;;0.36;97.62
21760;BME280;11041;50.854;20.580;2022-12-07T01:18:56;98123.88;;;0.20;97.26
21760;BME280;11041;50.854;20.580;2022-12-07T01:21:32;98125.50;;;0.21;97.62
21760;BME280;11041;50.854;20.580;2022-12-07T01:24:06;98122.53;;;0.18;97.30
21760;BME280;11041;50.854;20.580;2022-12-07T01:26:34;98130.06;;;0.16;97.93
21760;BME280;11041;50.854;20.580;2022-12-07T01:29:01;98128.19;;;0.21;97.60
21760;BME280;11041;50.854;20.580;2022-12-07T01:31:28;98124.41;;;0.17;98.26
21760;BME280;11041;50.854;20.580;2022-12-07T01:33:58;98120.09;;;0.21;97.54
21760;BME280;11041;50.854;20.580;2022-12-07T01:36:32;98141.78;;;0.32;97.60
21760;BME280;11041;50.854;20.580;2022-12-07T01:39:03;98146.41;;;0.36;97.53
21760;BME280;11041;50.854;20.580;2022-12-07T01:41:34;98140.94;;;0.31;97.58
21760;BME280;11041;50.854;20.580;2022-12-07T01:44:21;98154.75;;;0.35;97.42
21760;BME280;11041;50.854;20.580;2022-12-07T01:47:03;98142.00;;;0.25;97.41
21760;BME280;11041;50.854;20.580;2022-12-07T01:49:45;98114.41;;;0.13;98.17
21760;BME280;11041;50.854;20.580;2022-12-07T01:52:21;98144.47;;;0.32;97.57
21760;BME280;11041;50.854;20.580;2022-12-07T01:54:54;98112.25;;;0.15;97.42
21760;BME280;11041;50.854;20.580;2022-12-07T01:57:23;98140.13;;;0.26;97.83
21760;BME280;11041;50.854;20.580;2022-12-07T01:59:53;98145.28;;;0.27;97.91
21760;BME280;11041;50.854;20.580;2022-12-07T02:02:43;98134.16;;;0.24;97.90
21760;BME280;11041;50.854;20.580;2022-12-07T02:05:11;98115.19;;;0.08;98.12
21760;BME280;11041;50.854;20.580;2022-12-07T02:07:39;98110.34;;;0.10;97.86
21760;BME280;11041;50.854;20.580;2022-12-07T02:10:23;98131.47;;;0.24;98.26
21760;BME280;11041;50.854;20.580;2022-12-07T02:13:08;98112.72;;;0.07;98.63
21760;BME280;11041;50.854;20.580;2022-12-07T02:19:56;98130.97;;;0.32;98.97
21760;BME280;11041;50.854;20.580;2022-12-07T02:22:49;98136.66;;;0.35;98.29
21760;BME280;11041;50.854;20.580;2022-12-07T02:34:55;98127.75;;;0.40;97.39
21760;BME280;11041;50.854;20.580;2022-12-07T02:43:28;98115.84;;;0.36;97.40
21760;BME280;11041;50.854;20.580;2022-12-07T02:46:11;98094.16;;;0.15;97.31
21760;BME280;11041;50.854;20.580;2022-12-07T02:48:41;98107.69;;;0.26;97.58
21760;BME280;11041;50.854;20.580;2022-12-07T02:51:10;98105.00;;;0.26;97.51
21760;BME280;11041;50.854;20.580;2022-12-07T02:53:43;98101.47;;;0.20;97.52
21760;BME280;11041;50.854;20.580;2022-12-07T03:00:17;98109.84;;;0.29;97.70
21760;BME280;11041;50.854;20.580;2022-12-07T03:03:09;98084.16;;;0.21;97.65
21760;BME280;11041;50.854;20.580;2022-12-07T03:05:56;98082.78;;;0.13;97.49
21760;BME280;11041;50.854;20.580;2022-12-07T03:09:11;98103.38;;;0.25;98.05
21760;BME280;11041;50.854;20.580;2022-12-07T03:11:55;98075.44;;;0.04;98.44
21760;BME280;11041;50.854;20.580;2022-12-07T03:14:35;98082.22;;;0.11;98.30
21760;BME280;11041;50.854;20.580;2022-12-07T03:17:17;98074.34;;;-0.01;98.90
21760;BME280;11041;50.854;20.580;2022-12-07T03:19:49;98096.59;;;0.17;98.67
21760;BME280;11041;50.854;20.580;2022-12-07T03:22:19;98105.28;;;0.24;98.18
21760;BME280;11041;50.854;20.580;2022-12-07T03:24:54;98077.38;;;0.13;98.37
21760;BME280;11041;50.854;20.580;2022-12-07T03:30:22;98071.72;;;0.10;98.18
21760;BME280;11041;50.854;20.580;2022-12-07T03:32:54;98093.91;;;0.22;98.23
21760;BME280;11041;50.854;20.580;2022-12-07T03:35:38;98088.22;;;0.18;98.25
21760;BME280;11041;50.854;20.580;2022-12-07T03:38:39;98092.56;;;0.25;98.21
21760;BME280;11041;50.854;20.580;2022-12-07T03:41:16;98075.81;;;0.23;98.10
21760;BME280;11041;50.854;20.580;2022-12-07T03:43:45;98073.59;;;0.14;98.13
21760;BME280;11041;50.854;20.580;2022-12-07T03:46:44;98049.25;;;0.09;98.05
21760;BME280;11041;50.854;20.580;2022-12-07T03:49:27;98073.34;;;0.21;98.07
21760;BME280;11041;50.854;20.580;2022-12-07T03:51:58;98070.41;;;0.23;97.99
21760;BME280;11041;50.854;20.580;2022-12-07T03:54:38;98031.97;;;0.00;98.06
21760;BME280;11041;50.854;20.580;2022-12-07T03:57:07;98047.63;;;0.03;97.90
21760;BME280;11041;50.854;20.580;2022-12-07T03:59:37;98044.63;;;-0.01;97.86
21760;BME280;11041;50.854;20.580;2022-12-07T04:02:07;98071.44;;;0.16;98.03
21760;BME280;11041;50.854;20.580;2022-12-07T04:04:34;98068.19;;;0.14;98.59
21760;BME280;11041;50.854;20.580;2022-12-07T04:07:01;98054.63;;;-0.01;99.11
21760;BME280;11041;50.854;20.580;2022-12-07T04:09:28;98073.59;;;0.14;98.74
21760;BME280;11041;50.854;20.580;2022-12-07T04:11:55;98064.97;;;0.17;98.70
21760;BME280;11041;50.854;20.580;2022-12-07T04:14:21;98055.72;;;0.03;98.71
21760;BME280;11041;50.854;20.580;2022-12-07T04:16:55;98070.41;;;0.23;98.10
21760;BME280;11041;50.854;20.580;2022-12-07T04:19:32;98058.72;;;0.12;98.02
21760;BME280;11041;50.854;20.580;2022-12-07T04:22:01;98050.88;;;0.05;98.00
21760;BME280;11041;50.854;20.580;2022-12-07T04:24:29;98073.09;;;0.17;98.14
21760;BME280;11041;50.854;20.580;2022-12-07T04:26:56;98050.38;;;0.13;98.45
21760;BME280;11041;50.854;20.580;2022-12-07T04:29:23;98042.78;;;0.05;98.18
21760;BME280;11041;50.854;20.580;2022-12-07T04:31:50;98049.78;;;0.06;98.18
21760;BME280;11041;50.854;20.580;2022-12-07T04:34:18;98060.13;;;0.19;98.03
21760;BME280;11041;50.854;20.580;2022-12-07T04:36:46;98059.03;;;0.15;98.45
21760;BME280;11041;50.854;20.580;2022-12-07T04:39:29;98065.78;;;0.18;98.46
21760;BME280;11041;50.854;20.580;2022-12-07T04:41:57;98036.84;;;0.08;97.70
21760;BME280;11041;50.854;20.580;2022-12-07T04:44:26;98046.84;;;0.08;98.03
21760;BME280;11041;50.854;20.580;2022-12-07T04:46:54;98039.81;;;0.12;98.12
21760;BME280;11041;50.854;20.580;2022-12-07T04:49:21;98062.28;;;0.23;97.71
21760;BME280;11041;50.854;20.580;2022-12-07T04:51:48;98055.25;;;0.21;97.92
21760;BME280;11041;50.854;20.580;2022-12-07T04:54:16;98028.72;;;0.03;97.71
21760;BME280;11041;50.854;20.580;2022-12-07T04:56:44;98055.50;;;0.10;98.17
21760;BME280;11041;50.854;20.580;2022-12-07T04:59:12;98027.06;;;-0.03;98.51
21760;BME280;11041;50.854;20.580;2022-12-07T05:01:39;98034.66;;;0.00;98.38
21760;BME280;11041;50.854;20.580;2022-12-07T05:04:06;98040.59;;;0.02;98.44
21760;BME280;11041;50.854;20.580;2022-12-07T05:06:33;98033.31;;;0.03;98.20
21760;BME280;11041;50.854;20.580;2022-12-07T05:09:00;98025.72;;;-0.06;98.60
21760;BME280;11041;50.854;20.580;2022-12-07T05:11:26;98023.56;;;-0.04;98.93
21760;BME280;11041;50.854;20.580;2022-12-07T05:14:17;98034.41;;;0.12;98.42
21760;BME280;11041;50.854;20.580;2022-12-07T05:16:47;98025.16;;;-0.03;98.17
21760;BME280;11041;50.854;20.580;2022-12-07T05:19:15;98040.09;;;0.05;98.42
21760;BME280;11041;50.854;20.580;2022-12-07T05:21:41;98006.53;;;-0.14;98.83
21760;BME280;11041;50.854;20.580;2022-12-07T05:24:12;98018.16;;;-0.04;98.83
21760;BME280;11041;50.854;20.580;2022-12-07T05:26:39;98012.19;;;-0.11;98.61
21760;BME280;11041;50.854;20.580;2022-12-07T05:29:05;98021.13;;;-0.05;98.81
21760;BME280;11041;50.854;20.580;2022-12-07T05:31:32;98007.09;;;-0.07;98.80
21760;BME280;11041;50.854;20.580;2022-12-07T05:34:00;98042.25;;;0.08;98.84
21760;BME280;11041;50.854;20.580;2022-12-07T05:36:26;98037.09;;;0.02;98.88
21760;BME280;11041;50.854;20.580;2022-12-07T05:38:54;98024.59;;;-0.10;99.15
21760;BME280;11041;50.854;20.580;2022-12-07T05:41:21;98049.25;;;0.04;98.84
21760;BME280;11041;50.854;20.580;2022-12-07T05:44:07;98015.69;;;-0.15;98.98
21760;BME280;11041;50.854;20.580;2022-12-07T05:46:34;98056.81;;;0.07;98.33
21760;BME280;11041;50.854;20.580;2022-12-07T05:49:01;98033.00;;;-0.06;98.13
21760;BME280;11041;50.854;20.580;2022-12-07T05:51:28;98047.09;;;0.06;98.64
21760;BME280;11041;50.854;20.580;2022-12-07T05:53:55;98031.41;;;-0.07;98.62
21760;BME280;11041;50.854;20.580;2022-12-07T05:56:22;98063.06;;;0.08;98.92
21760;BME280;11041;50.854;20.580;2022-12-07T05:58:49;98057.66;;;0.08;98.49
21760;BME280;11041;50.854;20.580;2022-12-07T06:01:34;98063.84;;;0.08;98.77
21760;BME280;11041;50.854;20.580;2022-12-07T06:04:01;98040.88;;;0.01;98.83
21760;BME280;11041;50.854;20.580;2022-12-07T06:06:27;98043.28;;;-0.03;99.09
21760;BME280;11041;50.854;20.580;2022-12-07T06:08:54;98029.47;;;-0.12;99.57
21760;BME280;11041;50.854;20.580;2022-12-07T06:11:20;98056.78;;;0.02;98.62
21760;BME280;11041;50.854;20.580;2022-12-07T06:14:05;98043.56;;;-0.05;99.09
21760;BME280;11041;50.854;20.580;2022-12-07T06:16:32;98017.31;;;-0.14;98.94
21760;BME280;11041;50.854;20.580;2022-12-07T06:18:58;98022.72;;;-0.14;98.69
21760;BME280;11041;50.854;20.580;2022-12-07T06:21:25;98050.88;;;0.05;98.91
21760;BME280;11041;50.854;20.580;2022-12-07T06:23:53;98056.53;;;0.04;98.90
21760;BME280;11041;50.854;20.580;2022-12-07T06:26:20;98037.31;;;-0.05;98.70
21760;BME280;11041;50.854;20.580;2022-12-07T06:28:47;98048.44;;;0.04;98.64
21760;BME280;11041;50.854;20.580;2022-12-07T06:31:14;98049.00;;;0.06;98.81
21760;BME280;11041;50.854;20.580;2022-12-07T06:33:42;98050.59;;;0.07;99.21
21760;BME280;11041;50.854;20.580;2022-12-07T06:36:09;98053.84;;;0.09;99.10
21760;BME280;11041;50.854;20.580;2022-12-07T06:38:37;98029.50;;;-0.07;98.52
21760;BME280;11041;50.854;20.580;2022-12-07T06:41:04;98047.06;;;0.01;98.88
21760;BME280;11041;50.854;20.580;2022-12-07T06:43:30;98041.69;;;0.01;98.80
21760;BME280;11041;50.854;20.580;2022-12-07T06:45:57;98061.72;;;0.10;98.97
21760;BME280;11041;50.854;20.580;2022-12-07T06:48:23;98061.72;;;0.10;98.74
21760;BME280;11041;50.854;20.580;2022-12-07T06:50:50;98076.28;;;0.09;99.00
21760;BME280;11041;50.854;20.580;2022-12-07T06:53:17;98057.13;;;0.11;98.35
21760;BME280;11041;50.854;20.580;2022-12-07T06:55:43;98065.22;;;0.11;98.62
21760;BME280;11041;50.854;20.580;2022-12-07T06:58:10;98064.41;;;0.10;98.05
21760;BME280;11041;50.854;20.580;2022-12-07T07:00:36;98061.97;;;0.09;98.13
21760;BME280;11041;50.854;20.580;2022-12-07T07:03:03;98041.34;;;-0.13;98.43
21760;BME280;11041;50.854;20.580;2022-12-07T07:05:29;98042.44;;;-0.09;98.51
21760;BME280;11041;50.854;20.580;2022-12-07T07:07:56;98053.81;;;-0.02;98.27
21760;BME280;11041;50.854;20.580;2022-12-07T07:10:23;98070.31;;;0.07;98.77
21760;BME280;11041;50.854;20.580;2022-12-07T07:12:49;98073.78;;;-0.03;98.89
21760;BME280;11041;50.854;20.580;2022-12-07T07:15:16;98050.28;;;-0.07;98.83
21760;BME280;11041;50.854;20.580;2022-12-07T07:17:43;98064.63;;;-0.02;98.79
21760;BME280;11041;50.854;20.580;2022-12-07T07:20:11;98055.97;;;-0.04;98.42
21760;BME280;11041;50.854;20.580;2022-12-07T07:22:37;98046.22;;;-0.10;98.53
21760;BME280;11041;50.854;20.580;2022-12-07T07:25:04;98067.88;;;0.01;98.72
21760;BME280;11041;50.854;20.580;2022-12-07T07:27:31;98068.16;;;0.09;99.25
21760;BME280;11041;50.854;20.580;2022-12-07T07:29:58;98072.50;;;0.10;99.10
21760;BME280;11041;50.854;20.580;2022-12-07T07:32:25;98054.63;;;-0.01;99.25
21760;BME280;11041;50.854;20.580;2022-12-07T07:34:51;98070.63;;;0.11;99.49
21760;BME280;11041;50.854;20.580;2022-12-07T07:37:18;98060.59;;;0.06;99.53
21760;BME280;11041;50.854;20.580;2022-12-07T07:39:44;98064.19;;;0.17;98.50
21760;BME280;11041;50.854;20.580;2022-12-07T07:42:11;98069.03;;;0.20;98.49
21760;BME280;11041;50.854;20.580;2022-12-07T07:44:38;98068.25;;;0.30;98.18
21760;BME280;11041;50.854;20.580;2022-12-07T07:47:04;98055.22;;;0.16;98.31
21760;BME280;11041;50.854;20.580;2022-12-07T07:49:31;98069.31;;;0.24;98.30
21760;BME280;11041;50.854;20.580;2022-12-07T07:51:57;98080.69;;;0.36;97.25
21760;BME280;11041;50.854;20.580;2022-12-07T07:54:24;98062.84;;;0.25;97.33
21760;BME280;11041;50.854;20.580;2022-12-07T07:56:50;98072.56;;;0.31;97.58
21760;BME280;11041;50.854;20.580;2022-12-07T07:59:18;98081.78;;;0.30;98.23
21760;BME280;11041;50.854;20.580;2022-12-07T08:01:45;98078.53;;;0.33;97.86
21760;BME280;11041;50.854;20.580;2022-12-07T08:04:11;98046.00;;;0.07;97.49
21760;BME280;11041;50.854;20.580;2022-12-07T08:06:38;98093.69;;;0.34;98.31
21760;BME280;11041;50.854;20.580;2022-12-07T08:09:05;98086.09;;;0.31;97.49
21760;BME280;11041;50.854;20.580;2022-12-07T08:11:32;98072.31;;;0.27;97.62
21760;BME280;11041;50.854;20.580;2022-12-07T08:13:59;98060.66;;;0.21;97.50
21760;BME280;11041;50.854;20.580;2022-12-07T08:16:26;98097.75;;;0.36;97.56
21760;BME280;11041;50.854;20.580;2022-12-07T08:18:52;98085.06;;;0.42;97.20
21760;BME280;11041;50.854;20.580;2022-12-07T08:21:19;98099.91;;;0.39;97.62
21760;BME280;11041;50.854;20.580;2022-12-07T08:23:46;98092.84;;;0.33;97.54
21760;BME280;11041;50.854;20.580;2022-12-07T08:26:15;98071.50;;;0.27;97.62
21760;BME280;11041;50.854;20.580;2022-12-07T08:28:42;98089.38;;;0.43;97.27
21760;BME280;11041;50.854;20.580;2022-12-07T08:31:17;98074.72;;;0.29;96.93
21760;BME280;11041;50.854;20.580;2022-12-07T08:33:47;98080.97;;;0.29;97.52
21760;BME280;11041;50.854;20.580;2022-12-07T08:36:15;98103.16;;;0.36;97.46
21760;BME280;11041;50.854;20.580;2022-12-07T08:38:42;98090.22;;;0.44;96.81
21760;BME280;11041;50.854;20.580;2022-12-07T08:41:09;98103.97;;;0.42;96.92
21760;BME280;11041;50.854;20.580;2022-12-07T08:43:36;98113.69;;;0.43;96.96
21760;BME280;11041;50.854;20.580;2022-12-07T08:46:19;98111.00;;;0.43;97.08
21760;BME280;11041;50.854;20.580;2022-12-07T08:48:54;98120.72;;;0.39;97.03
21760;BME280;11041;50.854;20.580;2022-12-07T08:51:22;98099.59;;;0.31;97.21
21760;BME280;11041;50.854;20.580;2022-12-07T08:53:52;98102.84;;;0.33;97.54
21760;BME280;11041;50.854;20.580;2022-12-07T08:56:19;98111.78;;;0.38;97.42
21760;BME280;11041;50.854;20.580;2022-12-07T08:58:46;98112.31;;;0.35;97.69
21760;BME280;11041;50.854;20.580;2022-12-07T09:01:12;98087.19;;;0.30;97.23
21760;BME280;11041;50.854;20.580;2022-12-07T09:03:39;98077.72;;;0.27;97.13
21760;BME280;11041;50.854;20.580;2022-12-07T09:06:07;98092.88;;;0.38;96.89
21760;BME280;11041;50.854;20.580;2022-12-07T09:08:40;98093.16;;;0.37;97.04
21760;BME280;11041;50.854;20.580;2022-12-07T09:11:08;98096.97;;;0.41;97.07
21760;BME280;11041;50.854;20.580;2022-12-07T09:13:35;98089.88;;;0.30;97.16
21760;BME280;11041;50.854;20.580;2022-12-07T09:16:03;98073.34;;;0.21;97.66
21760;BME280;11041;50.854;20.580;2022-12-07T09:18:29;98098.56;;;0.42;97.40
21760;BME280;11041;50.854;20.580;2022-12-07T09:20:57;98102.88;;;0.43;96.80
21760;BME280;11041;50.854;20.580;2022-12-07T09:23:23;98088.53;;;0.32;96.95
21760;BME280;11041;50.854;20.580;2022-12-07T09:25:50;98088.28;;;0.34;97.13
21760;BME280;11041;50.854;20.580;2022-12-07T09:28:16;98075.25;;;0.26;97.04
21760;BME280;11041;50.854;20.580;2022-12-07T09:30:48;98079.88;;;0.25;96.98
21760;BME280;11041;50.854;20.580;2022-12-07T09:33:15;98096.91;;;0.36;97.22
21760;BME280;11041;50.854;20.580;2022-12-07T09:35:49;98090.94;;;0.29;97.69
21760;BME280;11041;50.854;20.580;2022-12-07T09:38:19;98062.28;;;0.17;97.50
21760;BME280;11041;50.854;20.580;2022-12-07T09:40:47;98091.00;;;0.34;98.24
21760;BME280;11041;50.854;20.580;2022-12-07T09:43:20;98056.09;;;0.22;97.26
21760;BME280;11041;50.854;20.580;2022-12-07T09:45:53;98080.19;;;0.34;97.72
21760;BME280;11041;50.854;20.580;2022-12-07T09:48:36;98052.03;;;0.25;97.02
21760;BME280;11041;50.854;20.580;2022-12-07T09:51:18;98068.81;;;0.27;97.36
21760;BME280;11041;50.854;20.580;2022-12-07T09:53:48;98089.91;;;0.40;96.94
21760;BME280;11041;50.854;20.580;2022-12-07T09:56:18;98074.22;;;0.27;97.16
21760;BME280;11041;50.854;20.580;2022-12-07T09:58:46;98071.50;;;0.27;97.62
21760;BME280;11041;50.854;20.580;2022-12-07T10:01:20;98089.91;;;0.40;97.63
21760;BME280;11041;50.854;20.580;2022-12-07T10:04:05;98097.47;;;0.43;97.52
21760;BME280;11041;50.854;20.580;2022-12-07T10:06:32;98074.47;;;0.30;98.20
21760;BME280;11041;50.854;20.580;2022-12-07T10:08:59;98098.03;;;0.50;97.40
21760;BME280;11041;50.854;20.580;2022-12-07T10:11:25;98070.44;;;0.33;97.46
21760;BME280;11041;50.854;20.580;2022-12-07T10:13:52;98082.09;;;0.44;97.95
21760;BME280;11041;50.854;20.580;2022-12-07T10:16:42;98099.16;;;0.54;97.44
21760;BME280;11041;50.854;20.580;2022-12-07T10:19:32;98075.34;;;0.51;96.88
21760;BME280;11041;50.854;20.580;2022-12-07T10:22:17;98087.81;;;0.62;96.92
21760;BME280;11041;50.854;20.580;2022-12-07T10:24:47;98063.69;;;0.46;97.03
21760;BME280;11041;50.854;20.580;2022-12-07T10:27:32;98082.13;;;0.54;97.34
21760;BME280;11041;50.854;20.580;2022-12-07T10:29:59;98082.66;;;0.56;97.16
21760;BME280;11041;50.854;20.580;2022-12-07T10:32:35;98089.44;;;0.58;96.72
21760;BME280;11041;50.854;20.580;2022-12-07T10:35:29;98059.41;;;0.50;97.06
21760;BME280;11041;50.854;20.580;2022-12-07T10:37:59;98062.66;;;0.52;97.27
21760;BME280;11041;50.854;20.580;2022-12-07T10:43:23;98074.03;;;0.64;96.81
21760;BME280;11041;50.854;20.580;2022-12-07T10:46:43;98093.78;;;0.70;96.94
21760;BME280;11041;50.854;20.580;2022-12-07T10:52:42;98081.88;;;0.71;96.72
21760;BME280;11041;50.854;20.580;2022-12-07T11:07:14;98079.19;;;0.76;98.03
21760;BME280;11041;50.854;20.580;2022-12-07T11:10:13;98067.56;;;0.85;97.32
21760;BME280;11041;50.854;20.580;2022-12-07T11:13:11;98065.72;;;0.96;96.53
21760;BME280;11041;50.854;20.580;2022-12-07T11:18:59;98062.47;;;0.94;97.17
21760;BME280;11041;50.854;20.580;2022-12-07T11:21:57;98057.03;;;0.99;97.01
21760;BME280;11041;50.854;20.580;2022-12-07T11:24:54;98060.84;;;1.03;95.53
21760;BME280;11041;50.854;20.580;2022-12-07T11:28:38;98020.78;;;0.80;95.80
21760;BME280;11041;50.854;20.580;2022-12-07T11:31:25;98029.97;;;0.84;95.45
21760;BME280;11041;50.854;20.580;2022-12-07T11:34:51;98051.09;;;0.97;95.59
21760;BME280;11041;50.854;20.580;2022-12-07T11:37:30;98045.13;;;0.80;95.40
21760;BME280;11041;50.854;20.580;2022-12-07T11:40:35;98065.69;;;0.91;95.27
21760;BME280;11041;50.854;20.580;2022-12-07T11:43:30;98062.16;;;0.85;95.44
21760;BME280;11041;50.854;20.580;2022-12-07T11:46:17;98058.66;;;0.90;94.97
21760;BME280;11041;50.854;20.580;2022-12-07T11:49:11;98052.69;;;0.88;95.02
21760;BME280;11041;50.854;20.580;2022-12-07T11:51:42;98057.56;;;0.86;94.88
21760;BME280;11041;50.854;20.580;2022-12-07T11:54:19;98058.09;;;0.88;94.79
21760;BME280;11041;50.854;20.580;2022-12-07T11:56:49;98029.41;;;0.77;94.93
21760;BME280;11041;50.854;20.580;2022-12-07T11:59:33;98035.38;;;0.84;95.19
21760;BME280;11041;50.854;20.580;2022-12-07T12:02:20;98042.97;;;0.87;95.17
21760;BME280;11041;50.854;20.580;2022-12-07T12:07:36;98042.97;;;0.92;94.48
21760;BME280;11041;50.854;20.580;2022-12-07T12:10:35;98061.91;;;0.97;94.65
21760;BME280;11041;50.854;20.580;2022-12-07T12:22:03;98047.84;;;0.95;94.83
21760;BME280;11041;50.854;20.580;2022-12-07T12:24:34;98040.81;;;0.94;95.11
21760;BME280;11041;50.854;20.580;2022-12-07T12:27:23;98028.09;;;0.95;95.09
21760;BME280;11041;50.854;20.580;2022-12-07T12:30:02;98021.88;;;0.94;94.82
21760;BME280;11041;50.854;20.580;2022-12-07T12:32:42;98028.34;;;0.88;94.51
21760;BME280;11041;50.854;20.580;2022-12-07T12:35:35;98033.25;;;0.96;94.80
21760;BME280;11041;50.854;20.580;2022-12-07T12:38:26;98038.91;;;1.00;95.20
21760;BME280;11041;50.854;20.580;2022-12-07T12:40:56;98030.81;;;1.00;95.19
21760;BME280;11041;50.854;20.580;2022-12-07T12:43:46;98028.34;;;0.98;95.61
21760;BME280;11041;50.854;20.580;2022-12-07T12:57:36;98023.78;;;0.99;95.90
21760;BME280;11041;50.854;20.580;2022-12-07T13:00:22;98002.41;;;0.92;95.21
21760;BME280;11041;50.854;20.580;2022-12-07T13:02:54;98017.81;;;1.02;95.33
21760;BME280;11041;50.854;20.580;2022-12-07T13:05:25;97985.88;;;0.89;95.92
21760;BME280;11041;50.854;20.580;2022-12-07T13:18:42;98008.34;;;0.99;95.80
21760;BME280;11041;50.854;20.580;2022-12-07T13:23:56;98018.06;;;1.05;96.29
21760;BME280;11041;50.854;20.580;2022-12-07T13:29:19;97979.69;;;0.88;96.67
21760;BME280;11041;50.854;20.580;2022-12-07T13:31:52;98011.84;;;1.05;96.96
21760;BME280;11041;50.854;20.580;2022-12-07T13:34:38;97999.44;;;1.04;96.34
21760;BME280;11041;50.854;20.580;2022-12-07T13:37:15;98006.72;;;1.09;95.96
21760;BME280;11041;50.854;20.580;2022-12-07T13:39:52;97997.25;;;0.96;95.97
21760;BME280;11041;50.854;20.580;2022-12-07T13:42:29;98013.50;;;1.06;96.52
21760;BME280;11041;50.854;20.580;2022-12-07T13:44:59;97989.41;;;0.94;95.85
21760;BME280;11041;50.854;20.580;2022-12-07T13:47:39;97989.41;;;0.99;95.76
21760;BME280;11041;50.854;20.580;2022-12-07T13:50:29;97984.81;;;0.95;96.04
21760;BME280;11041;50.854;20.580;2022-12-07T13:53:01;97996.19;;;0.97;95.80
21760;BME280;11041;50.854;20.580;2022-12-07T13:55:29;98018.06;;;1.11;95.42
21760;BME280;11041;50.854;20.580;2022-12-07T13:57:56;98016.47;;;1.04;95.70
21760;BME280;11041;50.854;20.580;2022-12-07T14:00:26;98019.44;;;1.03;95.48
21760;BME280;11041;50.854;20.580;2022-12-07T14:03:42;98025.66;;;0.98;95.29
21760;BME280;11041;50.854;20.580;2022-12-07T14:06:19;98019.97;;;1.00;95.48
21760;BME280;11041;50.854;20.580;2022-12-07T14:08:47;98010.25;;;0.99;95.10
21760;BME280;11041;50.854;20.580;2022-12-07T14:11:19;98003.47;;;0.86;95.51
21760;BME280;11041;50.854;20.580;2022-12-07T14:14:05;98018.09;;;0.95;95.78
21760;BME280;11041;50.854;20.580;2022-12-07T14:16:36;98010.78;;;0.91;95.79
21760;BME280;11041;50.854;20.580;2022-12-07T14:25:16;98011.06;;;0.94;96.16
21760;BME280;11041;50.854;20.580;2022-12-07T14:27:57;97999.97;;;0.80;96.33
21760;BME280;11041;50.854;20.580;2022-12-07T14:30:33;98018.09;;;0.90;96.40
21760;BME280;11041;50.854;20.580;2022-12-07T14:33:03;98020.25;;;0.93;96.23
21760;BME280;11041;50.854;20.580;2022-12-07T14:35:32;98024.84;;;0.93;96.58
21760;BME280;11041;50.854;20.580;2022-12-07T14:37:59;97988.84;;;0.77;96.51
21760;BME280;11041;50.854;20.580;2022-12-07T14:40:28;97989.41;;;0.84;95.78
21760;BME280;11041;50.854;20.580;2022-12-07T14:43:11;98015.66;;;1.04;96.02
21760;BME280;11041;50.854;20.580;2022-12-07T14:45:40;98014.31;;;1.01;96.09
21760;BME280;11041;50.854;20.580;2022-12-07T14:48:13;98024.03;;;0.97;96.32
21760;BME280;11041;50.854;20.580;2022-12-07T14:50:51;98019.72;;;0.96;96.32
21760;BME280;11041;50.854;20.580;2022-12-07T14:53:30;98028.91;;;1.00;96.36
21760;BME280;11041;50.854;20.580;2022-12-07T14:55:57;98009.69;;;0.87;96.36
21760;BME280;11041;50.854;20.580;2022-12-07T14:58:24;98002.94;;;0.84;96.19
21760;BME280;11041;50.854;20.580;2022-12-07T15:00:50;98027.00;;;1.01;96.09
21760;BME280;11041;50.854;20.580;2022-12-07T15:03:17;98008.88;;;0.86;96.58
21760;BME280;11041;50.854;20.580;2022-12-07T15:05:44;98035.66;;;1.03;96.98